createdAt,value
2023-02-11T00:01:26.964Z,7.46
2023-02-11T00:03:55.073Z,7.65
2023-02-11T00:06:23.961Z,7.83
2023-02-11T00:08:53.381Z,7.32
2023-02-11T00:11:23.171Z,7.09
2023-02-11T00:13:50.922Z,7.41
2023-02-11T00:16:20.628Z,7.41
2023-02-11T00:18:48.734Z,7.07
2023-02-11T00:21:18.460Z,7.33
2023-02-11T00:23:47.176Z,7.50
2023-02-11T00:26:17.614Z,7.55
2023-02-11T00:28:47.230Z,7.38
2023-02-11T00:31:16.268Z,7.44
2023-02-11T00:33:44.675Z,7.37
2023-02-11T00:36:15.641Z,7.20
2023-02-11T00:38:44.101Z,7.40
2023-02-11T00:41:11.976Z,7.56
2023-02-11T00:43:41.633Z,7.46
2023-02-11T00:46:09.900Z,7.45
2023-02-11T00:48:37.748Z,7.23
2023-02-11T00:51:05.854Z,7.44
2023-02-11T00:53:33.741Z,7.43
2023-02-11T00:56:02.118Z,7.16
2023-02-11T00:58:30.088Z,7.49
2023-02-11T01:00:59.311Z,7.19
2023-02-11T01:03:27.295Z,7.08
2023-02-11T01:05:56.039Z,7.04
2023-02-11T01:08:24.099Z,7.34
2023-02-11T01:10:56.619Z,7.33
2023-02-11T01:13:24.830Z,7.48
2023-02-11T01:15:55.204Z,7.39
2023-02-11T01:18:24.920Z,7.06
2023-02-11T01:20:53.480Z,7.25
2023-02-11T01:23:21.345Z,7.24
2023-02-11T01:25:49.463Z,7.40
2023-02-11T01:28:18.901Z,7.57
2023-02-11T01:30:47.004Z,7.25
2023-02-11T01:33:14.935Z,7.08
2023-02-11T01:35:44.964Z,7.46
2023-02-11T01:38:17.007Z,7.76
2023-02-11T01:40:48.675Z,7.75
2023-02-11T01:43:16.665Z,7.28
2023-02-11T01:46:05.440Z,7.42
2023-02-11T01:48:37.230Z,7.18
2023-02-11T01:51:10.169Z,7.02
2023-02-11T01:53:57.115Z,7.48
2023-02-11T01:56:43.023Z,7.51
2023-02-11T01:59:16.423Z,7.43
2023-02-11T02:01:47.879Z,7.44
2023-02-11T02:04:19.907Z,7.49
2023-02-11T02:06:53.359Z,6.97
2023-02-11T02:09:24.793Z,7.08
2023-02-11T02:11:52.775Z,7.28
2023-02-11T02:14:21.490Z,7.06
2023-02-11T02:16:49.638Z,7.07
2023-02-11T02:19:49.863Z,6.81
2023-02-11T02:22:48.122Z,6.94
2023-02-11T02:25:29.255Z,6.84
2023-02-11T02:28:09.493Z,6.56
2023-02-11T02:31:10.477Z,6.55
2023-02-11T02:33:46.664Z,7.19
2023-02-11T02:36:23.060Z,6.73
2023-02-11T02:38:56.657Z,6.75
2023-02-11T02:41:29.023Z,7.01
2023-02-11T02:43:57.209Z,6.94
2023-02-11T02:46:26.781Z,6.72
2023-02-11T02:48:57.368Z,6.90
2023-02-11T02:51:40.691Z,7.19
2023-02-11T02:54:31.272Z,7.12
2023-02-11T02:57:07.046Z,7.07
2023-02-11T02:59:45.305Z,6.89
2023-02-11T03:02:19.063Z,7.05
2023-02-11T03:04:56.729Z,7.08
2023-02-11T03:07:36.484Z,6.86
2023-02-11T03:10:10.207Z,6.93
2023-02-11T03:12:39.196Z,7.06
2023-02-11T03:15:08.317Z,7.13
2023-02-11T03:17:39.698Z,7.04
2023-02-11T03:20:14.204Z,7.82
2023-02-11T03:22:47.568Z,7.55
2023-02-11T03:25:16.419Z,7.71
2023-02-11T03:27:53.679Z,7.56
2023-02-11T03:30:27.531Z,7.97
2023-02-11T03:33:01.162Z,7.95
2023-02-11T03:35:36.665Z,7.58
2023-02-11T03:38:08.545Z,7.84
2023-02-11T03:40:39.391Z,7.98
2023-02-11T03:43:12.274Z,8.14
2023-02-11T03:45:41.286Z,7.74
2023-02-11T03:48:15.719Z,7.39
2023-02-11T03:50:46.904Z,7.81
2023-02-11T03:53:16.904Z,7.47
2023-02-11T03:55:46.708Z,7.61
2023-02-11T03:58:14.660Z,7.76
2023-02-11T04:00:44.471Z,7.43
2023-02-11T04:03:13.804Z,7.56
2023-02-11T04:05:41.934Z,7.38
2023-02-11T04:08:11.103Z,7.02
2023-02-11T04:10:38.857Z,7.43
2023-02-11T04:13:06.784Z,7.14
2023-02-11T04:15:34.563Z,7.81
2023-02-11T04:18:03.380Z,7.67
2023-02-11T04:20:31.720Z,7.34
2023-02-11T04:22:59.486Z,7.81
2023-02-11T04:25:29.147Z,7.58
2023-02-11T04:27:57.111Z,6.90
2023-02-11T04:30:24.945Z,7.37
2023-02-11T04:32:54.195Z,7.38
2023-02-11T04:35:22.256Z,7.45
2023-02-11T04:37:50.016Z,7.29
2023-02-11T04:40:18.139Z,7.03
2023-02-11T04:42:47.254Z,7.32
2023-02-11T04:45:15.002Z,7.04
2023-02-11T04:47:42.803Z,6.81
2023-02-11T04:50:10.882Z,6.61
2023-02-11T04:52:38.738Z,6.24
2023-02-11T04:55:07.357Z,6.76
2023-02-11T04:57:35.479Z,6.56
2023-02-11T05:00:04.919Z,6.73
2023-02-11T05:02:32.714Z,6.52
2023-02-11T05:05:00.508Z,7.09
2023-02-11T05:07:28.227Z,6.96
2023-02-11T05:09:56.012Z,7.18
2023-02-11T05:12:23.832Z,6.99
2023-02-11T05:14:51.561Z,7.05
2023-02-11T05:17:20.731Z,7.22
2023-02-11T05:19:48.438Z,6.91
2023-02-11T05:22:16.250Z,6.91
2023-02-11T05:24:43.967Z,6.94
2023-02-11T05:27:11.789Z,7.05
2023-02-11T05:29:39.816Z,6.90
2023-02-11T05:32:08.988Z,6.94
2023-02-11T05:34:38.242Z,7.16
2023-02-11T05:37:06.149Z,6.96
2023-02-11T05:39:33.945Z,7.25
2023-02-11T05:42:01.697Z,6.78
2023-02-11T05:44:29.427Z,7.11
2023-02-11T05:46:57.414Z,7.09
2023-02-11T05:49:25.227Z,7.16
2023-02-11T05:51:54.335Z,6.83
2023-02-11T05:54:22.275Z,7.25
2023-02-11T05:56:50.148Z,6.83
2023-02-11T05:59:18.027Z,7.26
2023-02-11T06:01:45.800Z,6.96
2023-02-11T06:04:13.623Z,7.16
2023-02-11T06:06:41.464Z,7.02
2023-02-11T06:09:11.623Z,6.83
2023-02-11T06:11:39.808Z,7.18
2023-02-11T06:14:07.628Z,7.28
2023-02-11T06:16:35.395Z,7.40
2023-02-11T06:19:03.322Z,7.26
2023-02-11T06:21:42.723Z,7.10
2023-02-11T06:24:13.222Z,7.13
2023-02-11T06:26:41.037Z,7.22
2023-02-11T06:29:08.852Z,7.41
2023-02-11T06:31:38.851Z,7.28
2023-02-11T06:34:06.912Z,7.32
2023-02-11T06:36:35.171Z,7.48
2023-02-11T06:39:02.994Z,7.38
2023-02-11T06:41:32.104Z,7.68
2023-02-11T06:43:59.875Z,6.41
2023-02-11T06:46:27.970Z,7.08
2023-02-11T06:48:55.940Z,6.95
2023-02-11T06:51:23.703Z,7.44
2023-02-11T06:53:51.555Z,7.40
2023-02-11T06:56:21.624Z,7.04
2023-02-11T06:58:55.454Z,7.63
2023-02-11T07:01:24.576Z,6.92
2023-02-11T07:03:53.093Z,7.02
2023-02-11T07:06:23.025Z,7.10
2023-02-11T07:08:50.950Z,7.18
2023-02-11T07:11:20.663Z,6.70
2023-02-11T07:13:50.196Z,7.14
2023-02-11T07:16:20.170Z,6.81
2023-02-11T07:18:48.941Z,7.17
2023-02-11T07:21:19.937Z,7.35
2023-02-11T07:23:48.900Z,7.72
2023-02-11T07:26:18.785Z,7.52
2023-02-11T07:28:47.450Z,7.38
2023-02-11T07:31:18.297Z,7.51
2023-02-11T07:33:46.747Z,7.66
2023-02-11T07:36:16.106Z,7.53
2023-02-11T07:38:44.321Z,7.45
2023-02-11T07:41:14.541Z,7.64
2023-02-11T07:43:42.664Z,7.77
2023-02-11T07:46:13.065Z,7.64
2023-02-11T07:48:42.219Z,7.38
2023-02-11T07:51:12.392Z,7.44
2023-02-11T07:53:40.345Z,7.89
2023-02-11T07:56:10.087Z,7.79
2023-02-11T07:58:38.071Z,7.64
2023-02-11T08:01:08.093Z,7.55
2023-02-11T08:03:37.072Z,7.69
2023-02-11T08:06:07.290Z,7.82
2023-02-11T08:08:35.156Z,8.13
2023-02-11T08:11:07.505Z,8.22
2023-02-11T08:13:35.536Z,8.40
2023-02-11T08:16:03.793Z,7.62
2023-02-11T08:18:32.244Z,8.39
2023-02-11T08:21:06.831Z,7.65
2023-02-11T08:23:34.944Z,7.94
2023-02-11T08:26:03.352Z,7.58
2023-02-11T08:28:31.513Z,8.09
2023-02-11T08:30:59.305Z,8.00
2023-02-11T08:33:27.032Z,8.46
2023-02-11T08:35:54.810Z,8.58
2023-02-11T08:38:23.944Z,7.97
2023-02-11T08:40:51.959Z,8.12
2023-02-11T08:43:19.920Z,8.11
2023-02-11T08:45:47.782Z,7.94
2023-02-11T08:48:15.612Z,7.87
2023-02-11T08:50:43.333Z,7.68
2023-02-11T08:53:11.098Z,7.95
2023-02-11T08:55:40.253Z,7.73
2023-02-11T08:58:08.119Z,8.30
2023-02-11T09:00:36.381Z,8.21
2023-02-11T09:03:04.384Z,8.14
2023-02-11T09:05:32.112Z,8.28
2023-02-11T09:07:59.840Z,7.99
2023-02-11T09:10:27.663Z,8.20
2023-02-11T09:12:56.776Z,8.37
2023-02-11T09:15:24.561Z,8.22
2023-02-11T09:17:52.335Z,7.98
2023-02-11T09:20:20.294Z,8.20
2023-02-11T09:22:48.153Z,8.25
2023-02-11T09:25:15.984Z,8.56
2023-02-11T09:27:43.725Z,8.89
2023-02-11T09:30:14.018Z,9.47
2023-02-11T09:32:41.822Z,8.73
2023-02-11T09:35:09.905Z,8.79
2023-02-11T09:37:37.712Z,8.79
2023-02-11T09:40:06.602Z,8.52
2023-02-11T09:42:52.921Z,8.92
2023-02-11T09:45:24.864Z,9.08
2023-02-11T09:47:56.620Z,8.99
2023-02-11T09:50:30.258Z,8.85
2023-02-11T09:53:01.588Z,8.82
2023-02-11T09:55:31.366Z,8.66
2023-02-11T09:57:59.632Z,8.58
2023-02-11T10:00:34.355Z,8.72
2023-02-11T10:03:43.527Z,8.77
2023-02-11T10:06:35.267Z,8.46
2023-02-11T10:09:17.406Z,8.80
2023-02-11T10:11:53.624Z,8.87
2023-02-11T10:14:37.044Z,8.96
2023-02-11T10:17:17.409Z,8.74
2023-02-11T10:19:58.757Z,8.78
2023-02-11T10:22:31.890Z,9.23
2023-02-11T10:25:01.808Z,8.90
2023-02-11T10:27:32.907Z,9.20
2023-02-11T10:30:05.614Z,9.27
2023-02-11T10:32:42.902Z,8.93
2023-02-11T10:35:17.915Z,8.87
2023-02-11T10:37:46.017Z,8.57
2023-02-11T10:40:16.724Z,8.39
2023-02-11T10:42:48.985Z,8.67
2023-02-11T10:45:23.239Z,8.71
2023-02-11T10:47:56.233Z,8.86
2023-02-11T10:50:26.884Z,8.91
2023-02-11T10:53:13.271Z,9.77
2023-02-11T10:55:53.384Z,8.96
2023-02-11T10:58:27.073Z,9.13
2023-02-11T11:00:57.078Z,8.69
2023-02-11T11:03:28.501Z,9.03
2023-02-11T11:05:58.813Z,9.43
2023-02-11T11:08:40.648Z,9.37
2023-02-11T11:11:09.997Z,9.46
2023-02-11T11:13:39.368Z,9.27
2023-02-11T11:16:16.007Z,9.39
2023-02-11T11:18:46.550Z,8.92
2023-02-11T11:21:16.996Z,9.09
2023-02-11T11:23:51.508Z,8.93
2023-02-11T11:26:19.852Z,8.73
2023-02-11T11:28:58.099Z,8.89
2023-02-11T11:31:29.785Z,9.04
2023-02-11T11:34:01.107Z,8.95
2023-02-11T11:36:37.913Z,8.62
2023-02-11T11:39:21.002Z,8.70
2023-02-11T11:41:55.218Z,8.38
2023-02-11T11:44:27.759Z,8.70
2023-02-11T11:47:16.858Z,9.05
2023-02-11T11:49:53.113Z,8.88
2023-02-11T11:52:34.460Z,9.15
2023-02-11T11:55:06.311Z,9.28
2023-02-11T11:57:38.606Z,9.02
2023-02-11T12:00:14.889Z,8.42
2023-02-11T12:03:19.598Z,9.11
2023-02-11T12:06:01.385Z,9.11
2023-02-11T12:08:42.121Z,9.64
2023-02-11T12:11:17.906Z,9.82
2023-02-11T12:13:58.015Z,8.53
2023-02-11T12:16:37.300Z,9.90
2023-02-11T12:19:37.760Z,9.74
2023-02-11T12:22:12.198Z,9.50
2023-02-11T12:24:54.619Z,9.49
2023-02-11T12:27:32.985Z,9.33
2023-02-11T12:30:07.469Z,9.35
2023-02-11T12:32:44.344Z,9.57
2023-02-11T12:35:29.341Z,9.29
2023-02-11T12:38:16.030Z,9.42
2023-02-11T12:40:46.775Z,9.75
2023-02-11T12:43:22.037Z,9.49
2023-02-11T12:46:11.510Z,10.09
2023-02-11T12:49:02.480Z,9.91
2023-02-11T12:51:46.427Z,9.49
2023-02-11T12:54:25.627Z,10.28
2023-02-11T12:57:02.246Z,9.85
2023-02-11T12:59:39.458Z,9.89
2023-02-11T13:02:17.883Z,9.89
2023-02-11T13:04:50.663Z,9.51
2023-02-11T13:07:27.884Z,10.02
2023-02-11T13:10:05.035Z,9.98
2023-02-11T13:12:52.353Z,9.59
2023-02-11T13:15:20.196Z,10.10
2023-02-11T13:17:55.596Z,9.70
2023-02-11T13:20:34.514Z,10.13
2023-02-11T13:23:12.260Z,10.23
2023-02-11T13:25:49.020Z,10.18
2023-02-11T13:28:29.097Z,10.06
2023-02-11T13:31:02.748Z,10.65
2023-02-11T13:33:36.096Z,10.40
2023-02-11T13:36:22.452Z,10.30
2023-02-11T13:39:02.909Z,10.81
2023-02-11T13:41:35.789Z,10.26
2023-02-11T13:44:23.125Z,10.35
2023-02-11T13:46:55.636Z,10.93
2023-02-11T13:49:27.044Z,10.82
2023-02-11T13:51:56.557Z,10.46
2023-02-11T13:54:31.057Z,10.46
2023-02-11T13:57:28.526Z,10.31
2023-02-11T13:59:57.343Z,10.45
2023-02-11T14:02:46.534Z,10.37
2023-02-11T14:05:41.781Z,10.21
2023-02-11T14:08:36.901Z,10.45
2023-02-11T14:11:12.369Z,10.23
2023-02-11T14:14:19.077Z,10.41
2023-02-11T14:17:21.318Z,10.62
2023-02-11T14:19:50.645Z,10.90
2023-02-11T14:22:23.776Z,10.48
2023-02-11T14:24:55.107Z,10.55
2023-02-11T14:27:30.798Z,10.71
2023-02-11T14:30:26.731Z,11.49
2023-02-11T14:33:18.356Z,10.82
2023-02-11T14:35:58.474Z,10.39
2023-02-11T14:38:35.765Z,10.76
2023-02-11T14:41:08.731Z,11.11
2023-02-11T14:43:41.215Z,11.19
2023-02-11T14:46:10.854Z,11.12
2023-02-11T14:48:44.220Z,11.13
2023-02-11T14:51:16.320Z,10.86
2023-02-11T14:53:47.528Z,11.05
2023-02-11T14:56:21.484Z,11.57
2023-02-11T14:58:51.951Z,11.44
2023-02-11T15:01:33.937Z,11.53
2023-02-11T15:04:03.520Z,11.15
2023-02-11T15:06:34.647Z,11.11
2023-02-11T15:09:07.178Z,10.81
2023-02-11T15:11:39.835Z,10.64
2023-02-11T15:14:10.758Z,10.61
2023-02-11T15:16:45.195Z,10.29
2023-02-11T15:19:22.745Z,10.43
2023-02-11T15:21:51.712Z,10.80
2023-02-11T15:24:26.469Z,11.00
2023-02-11T15:27:00.892Z,10.55
2023-02-11T15:29:30.536Z,10.55
2023-02-11T15:32:07.902Z,10.55
2023-02-11T15:34:36.096Z,10.60
2023-02-11T15:37:04.656Z,10.46
2023-02-11T15:39:36.519Z,10.45
2023-02-11T15:42:21.701Z,10.00
2023-02-11T15:44:56.537Z,10.64
2023-02-11T15:47:26.136Z,9.66
2023-02-11T15:49:54.018Z,10.15
2023-02-11T15:52:27.018Z,10.10
2023-02-11T15:54:57.364Z,10.05
2023-02-11T15:57:25.170Z,9.93
2023-02-11T15:59:54.885Z,10.10
2023-02-11T16:02:27.551Z,9.47
2023-02-11T16:04:58.285Z,9.49
2023-02-11T16:07:45.074Z,10.44
2023-02-11T16:10:24.899Z,10.36
2023-02-11T16:13:05.501Z,10.33
2023-02-11T16:15:44.982Z,10.17
2023-02-11T16:18:36.789Z,9.81
2023-02-11T16:21:08.687Z,9.31
2023-02-11T16:23:39.404Z,10.31
2023-02-11T16:26:11.201Z,10.39
2023-02-11T16:28:39.554Z,10.32
2023-02-11T16:31:07.701Z,9.69
2023-02-11T16:33:35.510Z,10.49
2023-02-11T16:36:13.199Z,9.78
2023-02-11T16:38:41.416Z,10.04
2023-02-11T16:41:11.881Z,9.63
2023-02-11T16:43:40.050Z,9.33
2023-02-11T16:46:09.256Z,9.67
2023-02-11T16:48:38.668Z,10.28
2023-02-11T16:51:09.167Z,10.16
2023-02-11T16:53:38.336Z,10.23
2023-02-11T16:56:06.596Z,9.88
2023-02-11T16:58:34.708Z,10.31
2023-02-11T17:01:02.692Z,10.37
2023-02-11T17:03:35.700Z,10.22
2023-02-11T17:06:05.632Z,10.40
2023-02-11T17:08:33.445Z,10.31
2023-02-11T17:11:02.702Z,10.27
2023-02-11T17:13:30.480Z,10.11
2023-02-11T17:15:58.366Z,10.19
2023-02-11T17:18:26.294Z,10.41
2023-02-11T17:20:54.201Z,10.44
2023-02-11T17:23:22.018Z,10.47
2023-02-11T17:25:56.497Z,10.28
2023-02-11T17:28:25.790Z,10.53
2023-02-11T17:30:53.655Z,10.57
2023-02-11T17:33:21.516Z,10.71
2023-02-11T17:35:49.471Z,10.46
2023-02-11T17:38:17.543Z,10.15
2023-02-11T17:40:45.309Z,10.27
2023-02-11T17:43:13.089Z,10.22
2023-02-11T17:45:43.719Z,10.00
2023-02-11T17:48:11.585Z,10.05
2023-02-11T17:50:39.362Z,10.29
2023-02-11T17:53:07.093Z,10.02
2023-02-11T17:55:35.242Z,10.00
2023-02-11T17:58:03.110Z,10.53
2023-02-11T18:00:31.333Z,10.36
2023-02-11T18:03:02.834Z,10.74
2023-02-11T18:05:35.537Z,9.96
2023-02-11T18:08:03.587Z,9.87
2023-02-11T18:10:31.730Z,9.82
2023-02-11T18:12:59.515Z,9.33
2023-02-11T18:15:27.492Z,9.75
2023-02-11T18:17:56.698Z,9.85
2023-02-11T18:20:25.922Z,10.19
2023-02-11T18:22:53.681Z,9.78
2023-02-11T18:25:21.542Z,9.58
2023-02-11T18:27:49.303Z,9.46
2023-02-11T18:30:19.022Z,9.32
2023-02-11T18:32:46.821Z,9.24
2023-02-11T18:35:15.835Z,9.28
2023-02-11T18:37:45.017Z,10.04
2023-02-11T18:40:13.972Z,9.54
2023-02-11T18:42:42.776Z,9.35
2023-02-11T18:45:14.941Z,9.50
2023-02-11T18:47:42.835Z,9.62
2023-02-11T18:50:13.715Z,10.00
2023-02-11T18:52:41.559Z,9.55
2023-02-11T18:55:11.139Z,9.33
2023-02-11T18:57:38.905Z,9.05
2023-02-11T19:00:09.981Z,9.38
2023-02-11T19:02:37.887Z,9.38
2023-02-11T19:05:06.405Z,9.55
2023-02-11T19:07:34.168Z,10.42
2023-02-11T19:10:01.942Z,9.48
2023-02-11T19:12:33.024Z,9.22
2023-02-11T19:15:01.075Z,9.17
2023-02-11T19:17:28.922Z,9.86
2023-02-11T19:19:56.657Z,8.76
2023-02-11T19:22:24.433Z,9.10
2023-02-11T19:24:52.182Z,9.24
2023-02-11T19:27:19.904Z,8.98
2023-02-11T19:29:49.388Z,9.21
2023-02-11T19:32:17.248Z,9.52
2023-02-11T19:34:45.061Z,9.33
2023-02-11T19:37:13.696Z,9.19
2023-02-11T19:39:42.112Z,9.09
2023-02-11T19:42:10.100Z,9.19
2023-02-11T19:44:37.869Z,9.95
2023-02-11T19:47:07.827Z,10.14
2023-02-11T19:49:35.546Z,10.26
2023-02-11T19:52:03.307Z,9.60
2023-02-11T19:54:31.066Z,9.69
2023-02-11T19:56:59.434Z,10.21
2023-02-11T19:59:27.576Z,9.67
2023-02-11T20:01:55.359Z,9.91
2023-02-11T20:04:25.137Z,10.17
2023-02-11T20:06:53.030Z,10.08
2023-02-11T20:09:21.641Z,9.67
2023-02-11T20:11:50.133Z,9.93
2023-02-11T20:14:17.863Z,9.81
2023-02-11T20:16:49.489Z,9.93
2023-02-11T20:19:19.017Z,10.18
2023-02-11T20:21:49.456Z,9.64
2023-02-11T20:24:18.473Z,9.44
2023-02-11T20:26:48.241Z,9.02
2023-02-11T20:29:17.238Z,9.26
2023-02-11T20:31:45.517Z,9.13
2023-02-11T20:34:13.502Z,9.51
2023-02-11T20:36:41.992Z,9.96
2023-02-11T20:39:17.018Z,9.51
2023-02-11T20:41:45.921Z,9.92
2023-02-11T20:44:14.917Z,9.99
2023-02-11T20:46:45.901Z,10.19
2023-02-11T20:49:15.271Z,9.93
2023-02-11T20:51:43.583Z,9.85
2023-02-11T20:54:15.304Z,9.86
2023-02-11T20:56:45.505Z,10.06
2023-02-11T20:59:16.523Z,9.99
2023-02-11T21:01:46.415Z,10.18
2023-02-11T21:04:16.710Z,9.93
2023-02-11T21:06:47.123Z,10.18
2023-02-11T21:09:19.731Z,9.99
2023-02-11T21:11:47.970Z,10.00
2023-02-11T21:14:16.226Z,9.71
2023-02-11T21:16:44.056Z,9.57
2023-02-11T21:19:11.966Z,9.51
2023-02-11T21:21:40.663Z,9.29
2023-02-11T21:24:09.316Z,9.72
2023-02-11T21:26:38.999Z,9.83
2023-02-11T21:29:08.345Z,9.63
2023-02-11T21:31:37.376Z,9.82
2023-02-11T21:34:05.799Z,9.41
2023-02-11T21:36:33.753Z,9.75
2023-02-11T21:39:01.782Z,9.18
2023-02-11T21:41:29.769Z,9.70
2023-02-11T21:43:58.975Z,10.00
2023-02-11T21:46:27.297Z,9.48
2023-02-11T21:48:55.174Z,9.59
2023-02-11T21:51:25.137Z,9.79
2023-02-11T21:53:57.503Z,9.87
2023-02-11T21:56:27.943Z,9.90
2023-02-11T21:58:56.982Z,9.78
2023-02-11T22:01:28.766Z,9.75
2023-02-11T22:03:57.409Z,9.17
2023-02-11T22:06:30.767Z,9.24
2023-02-11T22:09:00.406Z,9.18
2023-02-11T22:11:28.344Z,9.86
2023-02-11T22:13:57.799Z,9.64
2023-02-11T22:16:28.292Z,10.26
2023-02-11T22:18:58.360Z,10.48
2023-02-11T22:21:27.998Z,10.43
2023-02-11T22:23:56.808Z,10.22
2023-02-11T22:26:27.113Z,9.94
2023-02-11T22:28:55.417Z,9.31
2023-02-11T22:31:25.626Z,9.03
2023-02-11T22:33:55.228Z,9.40
2023-02-11T22:36:24.978Z,9.55
2023-02-11T22:38:53.536Z,9.90
2023-02-11T22:41:22.827Z,9.50
2023-02-11T22:43:50.867Z,9.79
2023-02-11T22:46:20.317Z,9.79
2023-02-11T22:48:49.561Z,9.67
2023-02-11T22:51:21.114Z,10.17
2023-02-11T22:53:53.492Z,10.18
2023-02-11T22:56:21.514Z,10.57
2023-02-11T22:58:49.610Z,10.42
2023-02-11T23:01:18.907Z,10.50
2023-02-11T23:03:47.079Z,10.77
2023-02-11T23:06:15.058Z,9.82
2023-02-11T23:08:44.442Z,9.69
2023-02-11T23:11:14.677Z,9.71
2023-02-11T23:13:44.390Z,9.78
2023-02-11T23:16:14.668Z,9.98
2023-02-11T23:18:44.458Z,10.12
2023-02-11T23:21:15.926Z,10.05
2023-02-11T23:23:46.234Z,10.04
2023-02-11T23:26:17.526Z,10.39
2023-02-11T23:28:47.073Z,10.38
2023-02-11T23:31:17.571Z,10.60
2023-02-11T23:33:46.021Z,10.20
2023-02-11T23:36:14.218Z,9.87
2023-02-11T23:38:42.063Z,10.63
2023-02-11T23:41:11.755Z,10.39
2023-02-11T23:43:39.863Z,10.40
2023-02-11T23:46:08.837Z,10.33
2023-02-11T23:48:37.640Z,10.43
2023-02-11T23:51:06.396Z,10.39
2023-02-11T23:53:34.157Z,10.69
2023-02-11T23:56:01.992Z,10.45
2023-02-11T23:58:31.257Z,10.45
